createdAt,value
2023-01-26T00:00:14.490Z,101139.25
2023-01-26T00:03:03.224Z,101137.56
2023-01-26T00:59:39.707Z,101079.34
2023-01-26T01:02:09.423Z,101069.28
2023-01-26T01:04:38.086Z,101082.00
2023-01-26T01:07:06.954Z,101076.09
2023-01-26T01:09:35.438Z,101069.91
2023-01-26T01:12:04.560Z,101071.09
2023-01-26T01:14:33.100Z,101070.16
2023-01-26T01:17:01.916Z,101070.28
2023-01-26T01:19:30.491Z,101051.97
2023-01-26T01:21:59.400Z,101075.78
2023-01-26T01:24:27.835Z,101071.47
2023-01-26T01:26:57.908Z,101074.22
2023-01-26T01:29:26.420Z,101074.44
2023-01-26T01:31:56.597Z,101069.13
2023-01-26T01:34:25.189Z,101069.34
2023-01-26T01:36:54.066Z,101069.47
2023-01-26T01:39:22.652Z,101058.22
2023-01-26T01:41:51.481Z,101060.75
2023-01-26T01:44:24.544Z,101061.59
2023-01-26T01:47:15.309Z,101050.25
2023-01-26T01:49:47.107Z,101034.78
2023-01-26T01:52:30.562Z,101043.38
2023-01-26T01:55:07.687Z,101039.13
2023-01-26T01:57:59.097Z,101038.41
2023-01-26T02:00:27.708Z,101044.44
2023-01-26T02:03:15.138Z,101029.47
2023-01-26T02:06:16.219Z,101034.88
2023-01-26T02:08:55.679Z,101029.72
2023-01-26T02:11:42.447Z,101032.56
2023-01-26T02:14:12.729Z,101027.25
2023-01-26T02:16:41.209Z,101022.06
2023-01-26T02:19:19.268Z,101030.84
2023-01-26T02:21:47.729Z,101020.47
2023-01-26T02:24:32.714Z,101023.97
2023-01-26T02:27:01.227Z,101017.81
2023-01-26T02:29:31.718Z,101019.66
2023-01-26T02:32:00.254Z,101019.75
2023-01-26T02:34:29.538Z,101012.72
2023-01-26T02:37:01.255Z,101015.38
2023-01-26T02:39:57.764Z,100998.97
2023-01-26T02:42:38.790Z,101007.66
2023-01-26T02:45:13.189Z,100998.34
2023-01-26T02:47:43.027Z,101001.63
2023-01-26T02:50:12.242Z,100999.16
2023-01-26T02:52:41.029Z,100984.53
2023-01-26T02:55:29.028Z,100993.13
2023-01-26T02:58:01.604Z,100985.16
2023-01-26T03:00:37.702Z,100980.81
2023-01-26T03:03:45.363Z,100976.56
2023-01-26T03:06:16.578Z,100982.97
2023-01-26T03:08:45.013Z,100980.31
2023-01-26T03:11:13.862Z,100975.09
2023-01-26T03:13:42.550Z,100979.47
2023-01-26T03:16:12.153Z,100963.66
2023-01-26T03:18:59.588Z,100968.22
2023-01-26T03:21:47.106Z,100957.63
2023-01-26T03:24:34.190Z,100952.63
2023-01-26T03:27:28.070Z,100959.53
2023-01-26T03:30:04.750Z,100956.88
2023-01-26T03:32:34.150Z,100944.56
2023-01-26T03:35:06.700Z,100949.13
2023-01-26T03:37:37.166Z,100942.16
2023-01-26T03:40:32.529Z,100942.16
2023-01-26T03:43:27.817Z,100944.06
2023-01-26T03:46:15.116Z,100940.69
2023-01-26T03:49:04.057Z,100935.38
2023-01-26T03:51:51.459Z,100933.78
2023-01-26T03:54:38.878Z,100935.66
2023-01-26T03:57:07.682Z,100934.72
2023-01-26T03:59:39.537Z,100935.59
2023-01-26T04:02:31.874Z,100924.41
2023-01-26T04:05:21.129Z,100927.69
2023-01-26T04:08:13.407Z,100927.78
2023-01-26T04:10:42.196Z,100907.75
2023-01-26T04:13:29.484Z,100913.81
2023-01-26T04:16:23.991Z,100912.22
2023-01-26T04:19:11.101Z,100902.56
2023-01-26T04:21:40.033Z,100913.16
2023-01-26T04:24:22.689Z,100898.13
2023-01-26T04:26:56.420Z,100898.22
2023-01-26T04:29:29.089Z,100894.84
2023-01-26T04:31:57.816Z,100882.53
2023-01-26T04:34:27.977Z,100882.53
2023-01-26T04:36:57.219Z,100873.72
2023-01-26T04:39:30.127Z,100883.25
2023-01-26T04:41:59.008Z,100881.25
2023-01-26T04:44:27.661Z,100870.53
2023-01-26T04:46:56.648Z,100867.00
2023-01-26T04:49:25.113Z,100866.66
2023-01-26T04:51:54.362Z,100870.09
2023-01-26T04:54:24.166Z,100869.41
2023-01-26T04:56:54.210Z,100873.81
2023-01-26T04:59:22.768Z,100875.00
2023-01-26T05:01:54.217Z,100868.66
2023-01-26T05:04:23.049Z,100865.16
2023-01-26T05:06:52.009Z,100869.41
2023-01-26T05:09:21.734Z,100856.53
2023-01-26T05:12:20.086Z,100863.28
2023-01-26T05:15:07.817Z,100860.91
2023-01-26T05:17:55.256Z,100867.91
2023-01-26T05:20:40.301Z,100864.06
2023-01-26T05:23:35.217Z,100870.31
2023-01-26T05:26:22.519Z,100862.34
2023-01-26T05:29:08.258Z,100866.31
2023-01-26T05:31:36.872Z,100866.44
2023-01-26T05:34:05.796Z,100862.56
2023-01-26T05:36:36.616Z,100853.97
2023-01-26T05:39:05.532Z,100858.78
2023-01-26T05:41:34.197Z,100865.09
2023-01-26T05:44:31.827Z,100863.50
2023-01-26T05:47:07.081Z,100862.91
2023-01-26T05:49:39.246Z,100861.13
2023-01-26T05:52:11.269Z,100862.22
2023-01-26T05:54:41.827Z,100866.66
2023-01-26T05:57:10.423Z,100870.81
2023-01-26T05:59:43.251Z,100871.31
2023-01-26T06:02:14.892Z,100866.22
2023-01-26T06:04:46.476Z,100861.75
2023-01-26T06:07:14.976Z,100873.13
2023-01-26T06:09:49.029Z,100871.53
2023-01-26T06:12:24.354Z,100875.41
2023-01-26T06:15:05.629Z,100871.31
2023-01-26T06:17:40.765Z,100874.44
2023-01-26T06:20:12.847Z,100872.00
2023-01-26T06:22:41.620Z,100868.53
2023-01-26T06:25:10.548Z,100868.63
2023-01-26T06:27:42.919Z,100861.16
2023-01-26T06:30:19.269Z,100867.31
2023-01-26T06:32:48.278Z,100862.38
2023-01-26T06:35:17.411Z,100852.94
2023-01-26T06:37:51.708Z,100850.25
2023-01-26T06:40:20.862Z,100851.72
2023-01-26T06:42:50.429Z,100844.59
2023-01-26T06:45:22.200Z,100844.00
2023-01-26T06:47:52.280Z,100852.31
2023-01-26T06:50:26.668Z,100844.22
2023-01-26T06:52:56.347Z,100856.31
2023-01-26T06:55:57.588Z,100840.84
2023-01-26T06:58:52.319Z,100847.16
2023-01-26T07:01:59.341Z,100832.63
2023-01-26T07:04:27.913Z,100843.28
2023-01-26T07:06:56.670Z,100843.34
2023-01-26T07:09:25.221Z,100838.28
2023-01-26T07:11:55.075Z,100839.34
2023-01-26T07:14:23.500Z,100842.28
2023-01-26T07:16:52.328Z,100844.31
2023-01-26T07:19:21.009Z,100846.47
2023-01-26T07:21:49.930Z,100833.56
2023-01-26T07:24:18.472Z,100841.53
2023-01-26T07:26:47.398Z,100845.28
2023-01-26T07:29:16.832Z,100839.34
2023-01-26T07:31:45.866Z,100847.44
2023-01-26T07:34:14.584Z,100851.91
2023-01-26T07:36:46.041Z,100847.81
2023-01-26T07:39:14.589Z,100849.59
2023-01-26T07:41:43.510Z,100842.72
2023-01-26T07:44:33.410Z,100835.44
2023-01-26T07:47:02.211Z,100851.88
2023-01-26T07:49:31.219Z,100842.47
2023-01-26T07:52:00.029Z,100844.41
2023-01-26T07:54:28.525Z,100836.66
2023-01-26T07:56:57.289Z,100840.41
2023-01-26T07:59:25.747Z,100834.47
2023-01-26T08:01:54.570Z,100831.44
2023-01-26T08:04:23.028Z,100833.25
2023-01-26T08:06:52.755Z,100835.91
2023-01-26T08:09:21.391Z,100842.91
2023-01-26T08:11:51.421Z,100832.38
2023-01-26T08:14:19.904Z,100841.22
2023-01-26T08:16:48.823Z,100829.84
2023-01-26T08:19:17.447Z,100829.13
2023-01-26T08:21:46.349Z,100822.88
2023-01-26T08:24:14.988Z,100830.72
2023-01-26T08:26:43.781Z,100840.72
2023-01-26T08:29:12.256Z,100829.09
2023-01-26T08:31:41.773Z,100839.47
2023-01-26T08:34:10.235Z,100844.91
2023-01-26T08:36:40.104Z,100834.13
2023-01-26T08:39:08.720Z,100836.03
2023-01-26T08:41:37.690Z,100842.09
2023-01-26T08:44:07.110Z,100845.72
2023-01-26T08:46:36.054Z,100837.97
2023-01-26T08:49:04.559Z,100841.50
2023-01-26T08:51:33.440Z,100845.94
2023-01-26T08:54:01.999Z,100847.84
2023-01-26T08:56:30.928Z,100843.63
2023-01-26T13:00:30.479Z,100573.50
2023-01-26T13:03:30.231Z,100579.78
2023-01-26T13:06:10.038Z,100571.34
2023-01-26T13:08:38.600Z,100571.63
2023-01-26T13:11:08.974Z,100570.22
2023-01-26T13:13:57.141Z,100562.47
2023-01-26T13:16:25.955Z,100560.94
2023-01-26T13:19:01.427Z,100554.19
2023-01-26T13:21:50.479Z,100556.09
2023-01-26T13:24:19.003Z,100554.69
2023-01-26T13:26:49.361Z,100536.59
2023-01-26T13:29:33.190Z,100544.34
2023-01-26T13:32:10.700Z,100544.56
2023-01-26T13:34:48.942Z,100544.44
2023-01-26T13:37:34.439Z,100543.75
2023-01-26T13:40:06.813Z,100546.41
2023-01-26T13:42:47.434Z,100540.09
2023-01-26T13:45:22.603Z,100529.03
2023-01-26T13:47:51.357Z,100537.84
2023-01-26T13:50:33.530Z,100533.69
2023-01-26T13:53:02.403Z,100533.41
2023-01-26T13:55:32.067Z,100534.78
2023-01-26T13:58:15.953Z,100531.81
2023-01-26T14:01:07.771Z,100527.41
2023-01-26T14:03:36.809Z,100537.44
2023-01-26T14:06:18.003Z,100532.84
2023-01-26T14:08:56.143Z,100528.78
2023-01-26T14:11:27.024Z,100538.41
2023-01-26T14:13:59.211Z,100538.69
2023-01-26T14:16:37.487Z,100532.31
2023-01-26T14:19:33.064Z,100536.38
2023-01-26T14:22:01.858Z,100524.50
2023-01-26T14:24:34.796Z,100528.34
2023-01-26T14:27:04.057Z,100538.97
2023-01-26T14:29:38.432Z,100531.00
2023-01-26T14:32:12.844Z,100526.19
2023-01-26T14:35:01.712Z,100528.00
2023-01-26T14:37:30.230Z,100529.00
2023-01-26T14:40:22.326Z,100524.75
2023-01-26T14:42:52.723Z,100526.56
2023-01-26T14:45:31.785Z,100524.03
2023-01-26T14:48:07.427Z,100526.69
2023-01-26T14:50:36.412Z,100514.16
2023-01-26T14:53:07.274Z,100518.28
2023-01-26T14:55:36.651Z,100514.53
2023-01-26T14:58:31.623Z,100519.97
2023-01-26T15:01:01.315Z,100516.34
2023-01-26T15:03:37.283Z,100517.06
2023-01-26T15:06:28.798Z,100516.00
2023-01-26T15:09:06.920Z,100513.72
2023-01-26T15:11:58.651Z,100513.13
2023-01-26T15:14:39.079Z,100527.50
2023-01-26T15:17:07.912Z,100511.09
2023-01-26T15:19:41.149Z,100521.81
2023-01-26T15:22:22.752Z,100515.91
2023-01-26T15:25:20.124Z,100511.59
2023-01-26T15:27:59.756Z,100507.72
2023-01-26T15:30:33.658Z,100506.78
2023-01-26T15:33:02.796Z,100505.91
2023-01-26T15:35:33.456Z,100501.09
2023-01-26T15:38:12.986Z,100504.84
2023-01-26T15:40:41.475Z,100517.03
2023-01-26T15:43:19.048Z,100512.81
2023-01-26T15:46:01.410Z,100516.41
2023-01-26T15:48:31.977Z,100508.59
2023-01-26T15:51:00.425Z,100507.03
2023-01-26T15:53:30.279Z,100512.31
2023-01-26T15:56:00.948Z,100506.31
2023-01-26T15:58:31.762Z,100505.59
2023-01-26T16:01:00.489Z,100510.16
2023-01-26T16:03:30.690Z,100509.34
2023-01-26T16:05:59.125Z,100505.84
2023-01-26T16:08:28.020Z,100510.16
2023-01-26T16:10:57.154Z,100510.41
2023-01-26T16:13:27.084Z,100513.16
2023-01-26T16:15:55.748Z,100521.38
2023-01-26T16:18:24.518Z,100522.41
2023-01-26T16:20:52.889Z,100521.19
2023-01-26T16:23:26.639Z,100514.44
2023-01-26T16:25:55.630Z,100511.88
2023-01-26T16:28:24.573Z,100527.97
2023-01-26T16:30:53.044Z,100526.34
2023-01-26T16:33:21.990Z,100522.22
2023-01-26T16:35:50.381Z,100518.34
2023-01-26T16:38:19.381Z,100519.88
2023-01-26T16:40:48.557Z,100516.50
2023-01-26T16:43:24.254Z,100512.38
2023-01-26T16:45:53.559Z,100516.63
2023-01-26T16:48:22.880Z,100517.22
2023-01-26T16:50:53.886Z,100508.19
2023-01-26T16:53:27.428Z,100514.09
2023-01-26T16:55:56.229Z,100521.72
2023-01-26T16:58:26.817Z,100523.00
2023-01-26T17:00:55.733Z,100530.84
2023-01-26T17:03:26.151Z,100523.03
2023-01-26T17:05:56.503Z,100520.53
2023-01-26T17:08:25.326Z,100517.38
2023-01-26T17:11:02.135Z,100506.59
2023-01-26T17:13:31.743Z,100530.47
2023-01-26T17:16:00.334Z,100522.50
2023-01-26T17:18:33.618Z,100527.47
2023-01-26T17:21:03.513Z,100520.75
2023-01-26T17:23:32.582Z,100526.78
2023-01-26T17:26:01.360Z,100533.38
2023-01-26T17:28:30.706Z,100538.72
2023-01-26T17:31:01.215Z,100532.69
2023-01-26T17:33:30.371Z,100530.44
2023-01-26T17:36:03.146Z,100539.28
2023-01-26T17:38:32.327Z,100540.00
2023-01-26T17:41:00.907Z,100544.91
2023-01-26T17:43:29.985Z,100542.66
2023-01-26T17:46:11.390Z,100542.25
2023-01-26T17:48:42.640Z,100556.81
2023-01-26T17:51:19.095Z,100558.50
2023-01-26T17:53:50.243Z,100557.34
2023-01-26T17:56:20.831Z,100548.50
2023-01-26T17:58:54.736Z,100551.31
2023-01-26T18:01:26.893Z,100553.41
2023-01-26T18:03:55.795Z,100558.31
2023-01-26T18:06:24.375Z,100562.22
2023-01-26T18:08:53.164Z,100564.44
2023-01-26T18:11:21.936Z,100574.78
2023-01-26T18:13:52.078Z,100573.22
2023-01-26T18:16:21.188Z,100573.38
2023-01-26T18:18:55.652Z,100580.81
2023-01-26T18:21:27.567Z,100579.81
2023-01-26T18:23:59.669Z,100573.84
2023-01-26T18:26:31.852Z,100574.81
2023-01-26T18:29:00.778Z,100579.03
2023-01-26T18:31:37.542Z,100583.25
2023-01-26T18:34:10.299Z,100585.50
2023-01-26T18:36:38.818Z,100585.53
2023-01-26T18:39:11.573Z,100577.09
2023-01-26T18:41:40.992Z,100590.56
2023-01-26T18:44:09.974Z,100590.34
2023-01-26T18:46:38.687Z,100588.50
2023-01-26T18:49:08.312Z,100598.91
2023-01-26T18:51:36.823Z,100592.16
2023-01-26T18:54:06.040Z,100596.22
2023-01-26T18:56:35.552Z,100591.97
2023-01-26T18:59:04.432Z,100593.94
2023-01-26T19:01:33.183Z,100595.91
2023-01-26T19:04:04.196Z,100604.88
2023-01-26T19:06:32.981Z,100592.94
2023-01-26T19:09:07.568Z,100593.38
2023-01-26T19:11:38.189Z,100596.16
2023-01-26T19:14:07.704Z,100592.47
2023-01-26T19:16:36.352Z,100589.38
2023-01-26T19:19:05.546Z,100584.16
2023-01-26T19:21:34.373Z,100591.16
2023-01-26T19:24:06.352Z,100583.25
2023-01-26T19:26:35.009Z,100590.97
2023-01-26T19:29:04.487Z,100591.22
2023-01-26T19:31:34.038Z,100590.53
2023-01-26T19:34:05.276Z,100593.44
2023-01-26T19:36:36.451Z,100592.03
2023-01-26T19:39:06.075Z,100586.38
2023-01-26T19:41:34.971Z,100595.47
2023-01-26T19:44:08.139Z,100595.03
2023-01-26T19:46:36.692Z,100596.13
2023-01-26T19:49:07.375Z,100597.81
2023-01-26T19:51:35.916Z,100601.84
2023-01-26T19:54:06.108Z,100596.66
2023-01-26T19:56:38.172Z,100595.94
2023-01-26T19:59:10.773Z,100603.78
2023-01-26T20:01:39.533Z,100609.41
2023-01-26T20:04:11.800Z,100612.13
2023-01-26T20:06:40.653Z,100604.09
2023-01-26T20:09:09.751Z,100603.31
2023-01-26T20:11:38.390Z,100603.50
2023-01-26T20:14:11.350Z,100601.69
2023-01-26T20:16:40.109Z,100595.56
2023-01-26T20:19:09.001Z,100602.31
2023-01-26T20:21:39.219Z,100604.19
2023-01-26T20:24:13.167Z,100602.50
2023-01-26T20:26:44.524Z,100593.22
2023-01-26T20:29:18.559Z,100595.06
2023-01-26T20:31:47.782Z,100604.88
2023-01-26T20:34:16.862Z,100591.41
2023-01-26T20:36:45.765Z,100592.13
2023-01-26T20:39:18.110Z,100601.06
2023-01-26T20:41:46.693Z,100607.91
2023-01-26T20:44:16.870Z,100607.34
2023-01-26T20:46:45.390Z,100604.25
2023-01-26T20:49:16.370Z,100613.47
2023-01-26T20:51:45.610Z,100609.97
2023-01-26T20:54:16.316Z,100610.34
2023-01-26T20:56:49.223Z,100608.94
2023-01-26T20:59:19.198Z,100605.84
2023-01-26T21:01:47.809Z,100600.78
2023-01-26T21:04:16.939Z,100603.44
2023-01-26T21:06:45.393Z,100603.56
2023-01-26T21:09:14.202Z,100599.41
2023-01-26T21:11:43.791Z,100597.19
2023-01-26T21:14:13.921Z,100600.03
2023-01-26T21:16:43.014Z,100585.72
2023-01-26T21:19:12.951Z,100604.28
2023-01-26T21:21:41.360Z,100584.22
2023-01-26T21:24:12.060Z,100595.06
2023-01-26T21:26:40.619Z,100590.56
2023-01-26T21:29:15.279Z,100590.59
2023-01-26T21:31:46.019Z,100591.28
2023-01-26T21:34:14.913Z,100595.09
2023-01-26T21:36:43.430Z,100589.75
2023-01-26T21:39:15.283Z,100587.94
2023-01-26T21:41:56.258Z,100590.31
2023-01-26T21:44:30.052Z,100585.94
2023-01-26T21:47:04.123Z,100584.13
2023-01-26T21:49:34.157Z,100580.75
2023-01-26T21:52:21.531Z,100590.84
2023-01-26T21:54:50.430Z,100574.53
2023-01-26T21:57:37.301Z,100575.66
2023-01-26T22:00:06.787Z,100585.59
2023-01-26T22:02:35.286Z,100580.13
2023-01-26T22:05:04.375Z,100579.94
2023-01-26T22:07:32.915Z,100579.72
2023-01-26T22:10:01.826Z,100581.38
2023-01-26T22:12:30.610Z,100568.97
2023-01-26T22:14:59.598Z,100579.31
2023-01-26T22:17:28.177Z,100582.94
2023-01-26T22:19:57.061Z,100583.34
2023-01-26T22:22:25.999Z,100586.53
2023-01-26T22:24:54.904Z,100583.16
2023-01-26T22:27:23.385Z,100577.25
2023-01-26T22:29:52.165Z,100576.56
2023-01-26T22:32:20.617Z,100579.72
2023-01-26T22:34:49.697Z,100576.38
2023-01-26T22:37:18.097Z,100576.59
2023-01-26T22:39:49.317Z,100575.06
2023-01-26T22:42:19.688Z,100568.31
2023-01-26T22:44:48.632Z,100562.41
2023-01-26T22:47:17.076Z,100555.09
2023-01-26T22:49:45.877Z,100557.75
2023-01-26T22:52:14.681Z,100562.22
2023-01-26T22:54:43.632Z,100553.66
2023-01-26T22:57:12.051Z,100555.72
2023-01-26T22:59:41.831Z,100542.97
2023-01-26T23:02:10.325Z,100547.44
2023-01-26T23:04:39.239Z,100545.84
2023-01-26T23:07:07.738Z,100532.38
2023-01-26T23:09:36.454Z,100544.56
2023-01-26T23:12:05.165Z,100548.31
2023-01-26T23:14:37.016Z,100543.09
2023-01-26T23:17:08.657Z,100537.34
2023-01-26T23:19:37.866Z,100543.50
2023-01-26T23:22:06.409Z,100535.63
2023-01-26T23:24:35.270Z,100543.88
2023-01-26T23:27:03.697Z,100543.28
2023-01-26T23:29:32.525Z,100540.75
2023-01-26T23:32:01.045Z,100530.88
2023-01-26T23:34:31.086Z,100528.81
2023-01-26T23:36:59.636Z,100533.41
2023-01-26T23:39:28.501Z,100529.19
2023-01-26T23:41:58.403Z,100522.59
2023-01-26T23:44:27.237Z,100525.94
2023-01-26T23:46:55.812Z,100527.91
2023-01-26T23:49:24.605Z,100524.53
2023-01-26T23:51:53.024Z,100515.84
2023-01-26T23:54:21.818Z,100517.06
2023-01-26T23:56:50.289Z,100518.72
2023-01-26T23:59:20.987Z,100516.19
